CSZ6 weather

St-Jérôme (Hydro-Québec) Heliport
St-Jérôme, Quebec, Canada

Public forecast

Using degrees Celsius for public forecast. Weather courtesy of forecast.io.

METAR (pilot weather report)

Closest report is Montreal International (Mirabel) Airport, 5.5 nm (10.2 km) S. Retrieved 2019/05/21 08:00 UTC (2 minutes ago):

CYMX 210800Z 26008G15KT 230V310 25SM FEW040 BKN090 08/04 A2975 RMK SC1AC5 SLP078

TAF (pilot weather forecast)

Closest forecast is Montreal International (Mirabel) Airport, 5.5 nm (10.2 km) S. Retrieved 2019/05/21 06:42 UTC (1 hour ago):

TAF CYMX 210538Z 2106/2206 28008KT P6SM SCT020 OVC080 TEMPO 2106/2108 BKN020 OVC080 FM210800 27008KT P6SM BKN030 TEMPO 2108/2113 BKN020 BECMG 2111/2113 29015G25KT FM211800 31015G30KT P6SM BKN050 BECMG 2122/2124 33008KT FM220300 33005KT P6SM SCT060 RMK NXT FCST BY 211200Z